Accueil
METAR-TAF:

METAR-TAF

Aéroports :

Aéroport d'Avignon-Provence

Avignon, France

latitude: 43-54-26N, longitude: 004-54-07E, altitude: 38 m

Observation

Le bulletin a été fait il y a 26 minutes, à 03:00 UTC
Vent 6 kt de nord-ouest
Température 17°C
Humidité 68%
Pression 1014 hPa
Visibilité 10 km ou plus
pas de nuages en-dessous de 1500 mètres et pas de cumulonimbus.

METAR: LFMV 020300Z AUTO 32006KT CAVOK 17/11 Q1014

Heure: 05:26 (03:26 UTC)

Prévision

Le bulletin a été fait il y a 13 heures et 26 minutes, à 14:00 UTC
Prévision valable du 01 à 15 UTC au 02 à 15 UTC
Vent 15 kt de nord/nord-ouest avec des rafales jusqu'à 25 kt
Visibilité 10 km ou plus
pas de nuages en-dessous de 1500 mètres et pas de cumulonimbus.
Evoluant progressivement
du 01 à 18 UTC au 01 à 21 UTC
Vent 10 kt de nord/nord-ouest

TAF: LFMV 011400Z 0115/0215 34015G25KT CAVOK BECMG 0118/0121 33010KT

Observations et prévisions météorologiques de plus de 4000 aéroports (messages METAR et TAF).

Les stations disponibles sont représentées par des disques jaunes et rouges sur la carte.

Passer la souris dessus pour voir le nom de la station.

Cliquer dessus pour voir les observations et prévisions météorologiques.

Pour changer de carte: cliquez sur les boutons verts avec une croix noire pour zoomer, sur le bouton vert avec un tiret pour effectuer un zoom arrière, ou sur les flèches vertes pour les cartes adjacentes.


METAR-TAF: